createdAt,value
2022-08-01T00:00:25.138Z,19.77
2022-08-01T00:03:00.461Z,19.65
2022-08-01T00:05:38.214Z,19.51
2022-08-01T00:08:23.430Z,19.35
2022-08-01T00:11:01.370Z,19.24
2022-08-01T00:13:41.130Z,19.04
2022-08-01T00:16:08.959Z,19.00
2022-08-01T00:18:38.892Z,18.87
2022-08-01T00:21:14.273Z,18.84
2022-08-01T00:23:45.364Z,18.84
2022-08-01T00:26:13.351Z,18.87
2022-08-01T00:28:42.768Z,18.85
2022-08-01T00:31:10.584Z,18.82
2022-08-01T00:33:38.444Z,18.81
2022-08-01T00:36:09.487Z,18.80
2022-08-01T00:38:37.559Z,18.80
2022-08-01T00:41:05.268Z,18.72
2022-08-01T00:43:33.125Z,18.75
2022-08-01T00:46:03.665Z,18.75
2022-08-01T00:48:36.330Z,18.78
2022-08-01T00:51:05.795Z,18.77
2022-08-01T00:53:51.415Z,18.73
2022-08-01T00:56:22.450Z,18.77
2022-08-01T00:58:50.474Z,18.72
2022-08-01T01:01:18.606Z,18.74
2022-08-01T01:04:02.262Z,18.74
2022-08-01T01:06:42.671Z,18.76
2022-08-01T01:09:23.946Z,18.82
2022-08-01T01:12:03.270Z,18.81
2022-08-01T01:14:38.870Z,18.73
2022-08-01T01:17:08.828Z,18.80
2022-08-01T01:19:44.013Z,18.76
2022-08-01T01:22:39.295Z,18.74
2022-08-01T01:25:27.890Z,18.72
2022-08-01T01:28:09.489Z,18.61
2022-08-01T01:30:40.977Z,18.56
2022-08-01T01:33:12.295Z,18.55
2022-08-01T01:35:47.066Z,18.49
2022-08-01T01:38:19.433Z,18.41
2022-08-01T01:40:50.244Z,18.37
2022-08-01T01:43:20.046Z,18.34
2022-08-01T01:45:52.911Z,18.34
2022-08-01T01:48:23.453Z,18.34
2022-08-01T01:50:53.205Z,18.30
2022-08-01T01:53:24.383Z,18.27
2022-08-01T01:55:55.545Z,18.26
2022-08-01T01:58:25.387Z,18.26
2022-08-01T02:00:56.478Z,18.28
2022-08-01T02:03:25.918Z,18.28
2022-08-01T02:05:55.478Z,18.33
2022-08-01T02:08:25.219Z,18.37
2022-08-01T02:11:13.034Z,18.43
2022-08-01T02:13:43.672Z,18.48
2022-08-01T02:16:14.962Z,18.52
2022-08-01T02:18:43.717Z,18.54
2022-08-01T02:21:16.116Z,18.56
2022-08-01T02:23:46.025Z,18.53
2022-08-01T02:26:17.963Z,18.55
2022-08-01T02:28:49.996Z,18.56
2022-08-01T02:31:22.395Z,18.57
2022-08-01T02:33:58.103Z,18.61
2022-08-01T02:36:31.362Z,18.63
2022-08-01T02:39:03.878Z,18.65
2022-08-01T02:41:33.628Z,18.68
2022-08-01T02:44:05.794Z,18.67
2022-08-01T02:46:38.401Z,18.67
2022-08-01T02:49:10.295Z,18.69
2022-08-01T02:51:39.309Z,18.75
2022-08-01T02:54:10.987Z,18.78
2022-08-01T02:56:52.277Z,18.75
2022-08-01T02:59:31.438Z,18.80
2022-08-01T03:02:04.041Z,18.75
2022-08-01T03:04:33.419Z,18.78
2022-08-01T03:07:04.121Z,18.77
2022-08-01T03:09:50.031Z,18.77
2022-08-01T03:12:28.217Z,18.79
2022-08-01T03:15:03.669Z,18.80
2022-08-01T03:17:38.969Z,18.79
2022-08-01T03:20:12.029Z,18.79
2022-08-01T03:22:41.840Z,18.79
2022-08-01T03:25:11.068Z,18.78
2022-08-01T03:27:39.344Z,18.81
2022-08-01T03:30:08.639Z,18.80
2022-08-01T03:32:37.911Z,18.79
2022-08-01T03:35:06.885Z,18.82
2022-08-01T03:37:54.579Z,18.82
2022-08-01T03:40:37.508Z,18.80
2022-08-01T03:43:09.072Z,18.80
2022-08-01T03:45:41.211Z,18.80
2022-08-01T03:48:15.345Z,18.79
2022-08-01T03:50:47.063Z,18.83
2022-08-01T03:53:16.470Z,18.84
2022-08-01T03:55:45.912Z,18.86
2022-08-01T03:58:15.103Z,18.87
2022-08-01T04:00:43.997Z,18.91
2022-08-01T04:03:14.691Z,18.90
2022-08-01T04:05:43.287Z,18.88
2022-08-01T04:08:14.709Z,18.90
2022-08-01T04:10:43.293Z,18.93
2022-08-01T04:13:11.231Z,18.92
2022-08-01T04:15:39.074Z,18.85
2022-08-01T04:18:07.770Z,18.90
2022-08-01T04:20:37.072Z,18.90
2022-08-01T04:23:05.442Z,18.90
2022-08-01T04:25:36.424Z,18.90
2022-08-01T04:28:09.322Z,18.92
2022-08-01T04:30:39.828Z,18.96
2022-08-01T04:33:10.552Z,19.01
2022-08-01T04:36:03.956Z,19.02
2022-08-01T04:38:33.870Z,18.99
2022-08-01T04:41:08.511Z,19.03
2022-08-01T04:43:38.549Z,18.97
2022-08-01T04:46:17.823Z,19.05
2022-08-01T04:48:47.223Z,19.07
2022-08-01T04:51:29.873Z,19.07
2022-08-01T04:54:24.092Z,19.14
2022-08-01T04:57:00.923Z,19.11
2022-08-01T04:59:45.821Z,19.15
2022-08-01T05:02:15.947Z,19.17
2022-08-01T05:04:44.738Z,19.19
2022-08-01T05:07:15.147Z,19.18
2022-08-01T05:09:48.199Z,19.21
2022-08-01T05:12:16.839Z,19.25
2022-08-01T05:14:44.614Z,19.23
2022-08-01T05:17:12.468Z,20.25
2022-08-01T05:19:44.127Z,20.29
2022-08-01T05:22:13.281Z,20.76
2022-08-01T05:24:43.455Z,20.88
2022-08-01T05:27:13.642Z,20.90
2022-08-01T05:29:52.205Z,21.16
2022-08-01T05:32:20.454Z,21.20
2022-08-01T05:34:48.152Z,21.21
2022-08-01T05:37:17.264Z,21.38
2022-08-01T05:39:47.222Z,21.28
2022-08-01T05:42:17.859Z,21.37
2022-08-01T05:44:45.746Z,21.37
2022-08-01T05:47:15.634Z,21.49
2022-08-01T05:49:43.484Z,21.37
2022-08-01T05:52:29.263Z,21.26
2022-08-01T05:55:05.633Z,20.91
2022-08-01T06:00:48.691Z,20.69
2022-08-01T06:03:22.264Z,20.63
2022-08-01T06:05:50.206Z,20.63
2022-08-01T06:08:18.158Z,20.60
2022-08-01T06:10:47.459Z,20.50
2022-08-01T06:13:15.760Z,20.56
2022-08-01T06:15:43.520Z,20.69
2022-08-01T06:18:11.187Z,20.76
2022-08-01T06:20:42.204Z,21.13
2022-08-01T06:23:23.775Z,21.44
2022-08-01T06:25:59.539Z,21.76
2022-08-01T06:28:27.179Z,22.09
2022-08-01T06:30:55.314Z,21.98
2022-08-01T06:33:23.443Z,21.85
2022-08-01T06:35:51.285Z,22.11
2022-08-01T06:38:19.571Z,22.38
2022-08-01T06:40:48.232Z,22.75
2022-08-01T06:43:17.814Z,22.85
2022-08-01T06:45:46.166Z,23.01
2022-08-01T06:48:14.257Z,23.15
2022-08-01T06:50:42.120Z,22.79
2022-08-01T06:53:09.921Z,22.89
2022-08-01T06:55:37.611Z,22.71
2022-08-01T06:58:05.346Z,22.65
2022-08-01T07:00:35.739Z,22.41
2022-08-01T07:03:03.477Z,22.36
2022-08-01T07:05:35.570Z,22.24
2022-08-01T07:08:03.514Z,22.20
2022-08-01T07:10:32.123Z,21.93
2022-08-01T07:13:00.737Z,21.70
2022-08-01T07:15:29.465Z,21.67
2022-08-01T07:18:04.730Z,21.65
2022-08-01T07:20:50.216Z,21.38
2022-08-01T07:23:30.373Z,21.30
2022-08-01T07:26:03.178Z,21.18
2022-08-01T07:28:31.626Z,21.07
2022-08-01T07:30:59.663Z,20.95
2022-08-01T07:33:28.799Z,20.99
2022-08-01T07:36:16.454Z,21.07
2022-08-01T07:38:45.043Z,21.24
2022-08-01T07:41:13.084Z,21.45
2022-08-01T07:43:42.849Z,21.35
2022-08-01T07:46:13.753Z,21.33
2022-08-01T07:48:42.805Z,21.42
2022-08-01T07:51:11.771Z,21.56
2022-08-01T07:53:39.930Z,21.58
2022-08-01T07:56:11.052Z,21.61
2022-08-01T07:58:38.707Z,21.79
2022-08-01T08:01:08.128Z,21.70
2022-08-01T08:03:36.447Z,21.65
2022-08-01T08:06:07.257Z,21.68
2022-08-01T08:08:35.582Z,21.70
2022-08-01T08:11:03.725Z,21.53
2022-08-01T08:13:33.493Z,21.54
2022-08-01T08:16:01.719Z,21.39
2022-08-01T08:18:30.291Z,21.41
2022-08-01T08:21:02.288Z,21.21
2022-08-01T08:23:51.486Z,21.17
2022-08-01T08:26:21.550Z,21.04
2022-08-01T08:28:49.720Z,20.94
2022-08-01T08:31:24.954Z,20.95
2022-08-01T08:33:53.907Z,20.91
2022-08-01T08:36:22.355Z,20.85
2022-08-01T08:39:03.367Z,20.76
2022-08-01T08:41:37.922Z,20.81
2022-08-01T08:44:10.366Z,20.80
2022-08-01T08:46:43.554Z,20.88
2022-08-01T08:49:16.391Z,20.86
2022-08-01T08:51:45.866Z,20.82
2022-08-01T08:54:17.144Z,20.92
2022-08-01T08:56:46.533Z,20.92
2022-08-01T08:59:15.439Z,20.92
2022-08-01T09:01:48.833Z,20.97
2022-08-01T09:04:21.095Z,20.91
2022-08-01T09:06:52.752Z,21.00
2022-08-01T09:09:23.415Z,21.07
2022-08-01T09:11:57.592Z,21.27
2022-08-01T09:14:33.268Z,21.45
2022-08-01T09:17:03.210Z,21.72
2022-08-01T09:19:39.914Z,21.89
2022-08-01T09:22:10.382Z,22.16
2022-08-01T09:24:41.291Z,22.47
2022-08-01T09:27:22.371Z,22.67
2022-08-01T09:30:01.440Z,23.04
2022-08-01T09:32:35.727Z,23.34
2022-08-01T09:35:29.917Z,23.41
2022-08-01T09:38:15.912Z,23.39
2022-08-01T09:40:50.320Z,23.20
2022-08-01T09:43:19.025Z,22.98
2022-08-01T09:45:50.417Z,22.84
2022-08-01T09:48:19.157Z,22.56
2022-08-01T09:50:48.963Z,22.48
2022-08-01T09:53:30.443Z,22.40
2022-08-01T09:56:11.937Z,22.17
2022-08-01T09:59:00.470Z,22.08
2022-08-01T10:01:36.829Z,21.79
2022-08-01T10:04:09.595Z,21.89
2022-08-01T10:06:38.626Z,21.95
2022-08-01T10:09:06.609Z,21.94
2022-08-01T10:11:39.907Z,21.99
2022-08-01T10:14:08.383Z,21.79
2022-08-01T10:16:37.216Z,21.73
2022-08-01T10:19:14.602Z,21.33
2022-08-01T10:21:57.097Z,21.06
2022-08-01T10:24:30.031Z,20.86
2022-08-01T10:27:08.426Z,20.66
2022-08-01T10:29:46.332Z,20.82
2022-08-01T10:32:28.741Z,20.96
2022-08-01T10:34:57.519Z,20.91
2022-08-01T10:37:27.190Z,21.18
2022-08-01T10:40:27.158Z,21.59
2022-08-01T10:42:47.224Z,21.83
2022-08-01T10:45:16.778Z,22.08
2022-08-01T10:47:53.405Z,22.72
2022-08-01T10:50:26.849Z,22.62
2022-08-01T10:53:16.163Z,22.80
2022-08-01T10:55:53.140Z,22.87
2022-08-01T10:58:29.984Z,23.18
2022-08-01T11:01:19.601Z,22.99
2022-08-01T11:04:01.320Z,22.90
2022-08-01T11:06:41.087Z,23.00
2022-08-01T11:09:36.644Z,23.27
2022-08-01T11:12:13.659Z,23.44
2022-08-01T11:15:29.674Z,23.59
2022-08-01T11:18:00.532Z,24.02
2022-08-01T11:20:31.446Z,24.07
2022-08-01T11:23:29.794Z,24.24
2022-08-01T11:26:28.755Z,23.76
2022-08-01T11:29:22.076Z,23.83
2022-08-01T11:31:54.174Z,23.83
2022-08-01T11:34:58.073Z,24.00
2022-08-01T11:37:30.485Z,24.40
2022-08-01T11:40:19.803Z,24.46
2022-08-01T11:42:49.299Z,24.75
2022-08-01T11:45:18.678Z,24.63
2022-08-01T11:47:53.155Z,24.62
2022-08-01T11:50:36.584Z,24.38
2022-08-01T11:53:07.269Z,24.11
2022-08-01T11:55:36.697Z,23.74
2022-08-01T11:58:06.302Z,23.32
2022-08-01T12:00:34.968Z,23.31
2022-08-01T12:03:05.942Z,23.20
2022-08-01T12:05:37.854Z,23.13
2022-08-01T12:08:11.108Z,23.26
2022-08-01T12:10:47.022Z,23.44
2022-08-01T12:13:18.931Z,23.43
2022-08-01T12:15:47.473Z,23.46
2022-08-01T12:18:20.070Z,23.34
2022-08-01T12:20:56.651Z,23.21
2022-08-01T12:23:33.261Z,23.14
2022-08-01T12:26:05.801Z,22.91
2022-08-01T12:28:44.305Z,22.49
2022-08-01T12:31:13.325Z,22.42
2022-08-01T12:33:42.402Z,22.40
2022-08-01T12:36:14.698Z,22.44
2022-08-01T12:38:49.270Z,22.61
2022-08-01T12:41:21.541Z,22.68
2022-08-01T12:43:53.829Z,22.53
2022-08-01T12:46:23.516Z,22.52
2022-08-01T12:48:55.223Z,22.50
2022-08-01T12:51:35.453Z,22.53
2022-08-01T12:54:06.025Z,22.70
2022-08-01T12:56:40.714Z,22.96
2022-08-01T12:59:28.663Z,22.94
2022-08-01T13:02:00.237Z,23.19
2022-08-01T13:04:31.230Z,23.33
2022-08-01T13:06:59.250Z,23.63
2022-08-01T13:09:27.462Z,23.54
2022-08-01T13:12:04.987Z,23.67
2022-08-01T13:14:33.288Z,23.67
2022-08-01T13:17:01.011Z,24.05
2022-08-01T13:19:51.101Z,24.15
2022-08-01T13:22:18.961Z,24.31
2022-08-01T13:24:49.611Z,24.64
2022-08-01T13:27:26.304Z,24.67
2022-08-01T13:29:59.568Z,24.53
2022-08-01T13:32:31.666Z,24.81
2022-08-01T13:35:05.708Z,24.85
2022-08-01T13:37:37.267Z,24.47
2022-08-01T13:40:10.382Z,23.81
2022-08-01T13:42:40.768Z,23.43
2022-08-01T13:45:13.733Z,23.14
2022-08-01T13:48:03.680Z,22.88
2022-08-01T13:50:37.574Z,22.71
2022-08-01T13:53:05.402Z,22.68
2022-08-01T13:55:39.439Z,22.49
2022-08-01T13:58:14.286Z,22.59
2022-08-01T14:00:46.661Z,22.72
2022-08-01T14:03:21.004Z,22.75
2022-08-01T14:06:06.507Z,22.85
2022-08-01T14:08:34.463Z,22.86
2022-08-01T14:11:07.645Z,23.06
2022-08-01T14:13:40.101Z,23.01
2022-08-01T14:16:15.009Z,23.59
2022-08-01T14:18:44.215Z,23.91
2022-08-01T14:21:22.129Z,23.99
2022-08-01T14:23:50.172Z,23.78
2022-08-01T14:26:17.958Z,23.69
2022-08-01T14:28:45.765Z,23.80
2022-08-01T14:31:18.941Z,23.86
2022-08-01T14:33:49.051Z,23.82
2022-08-01T14:36:31.070Z,23.85
2022-08-01T14:39:01.008Z,23.83
2022-08-01T14:41:30.760Z,24.00
2022-08-01T14:43:59.616Z,23.84
2022-08-01T14:46:27.414Z,23.93
2022-08-01T14:48:55.673Z,23.95
2022-08-01T14:51:27.223Z,23.82
2022-08-01T14:53:55.017Z,23.97
2022-08-01T14:56:22.770Z,24.12
2022-08-01T14:58:55.299Z,24.27
2022-08-01T15:01:32.530Z,24.57
2022-08-01T15:04:09.852Z,24.57
2022-08-01T15:06:40.252Z,24.64
2022-08-01T15:09:08.340Z,24.71
2022-08-01T15:11:37.271Z,24.70
2022-08-01T15:14:22.785Z,24.65
2022-08-01T15:16:50.595Z,24.77
2022-08-01T15:19:18.252Z,24.79
2022-08-01T15:21:49.817Z,24.89
2022-08-01T15:24:17.675Z,25.00
2022-08-01T15:26:46.146Z,24.76
2022-08-01T15:29:14.457Z,24.67
2022-08-01T15:31:42.211Z,24.66
2022-08-01T15:34:10.307Z,24.42
2022-08-01T15:36:38.036Z,24.38
2022-08-01T15:39:11.170Z,24.53
2022-08-01T15:41:39.220Z,24.36
2022-08-01T15:44:07.231Z,24.33
2022-08-01T15:46:34.827Z,24.29
2022-08-01T15:49:04.565Z,24.46
2022-08-01T15:51:33.108Z,24.37
2022-08-01T15:54:03.591Z,24.10
2022-08-01T15:56:32.699Z,24.12
2022-08-01T15:59:01.011Z,23.93
2022-08-01T16:01:29.772Z,24.02
2022-08-01T16:03:58.996Z,24.06
2022-08-01T16:06:27.084Z,24.09
2022-08-01T16:08:55.244Z,24.01
2022-08-01T16:11:24.029Z,24.13
2022-08-01T16:13:53.198Z,24.00
2022-08-01T16:16:21.083Z,23.98
2022-08-01T16:18:53.887Z,24.08
2022-08-01T16:21:22.671Z,24.20
2022-08-01T16:23:51.331Z,24.15
2022-08-01T16:26:27.616Z,24.19
2022-08-01T16:28:58.052Z,24.18
2022-08-01T16:31:42.693Z,24.18
2022-08-01T16:34:15.233Z,23.99
2022-08-01T16:36:43.190Z,23.91
2022-08-01T16:39:11.432Z,24.03
2022-08-01T16:41:41.103Z,24.01
2022-08-01T16:44:13.302Z,23.95
2022-08-01T16:46:41.350Z,23.86
2022-08-01T16:49:09.254Z,23.84
2022-08-01T16:51:42.101Z,23.86
2022-08-01T16:54:25.130Z,23.86
2022-08-01T16:56:54.821Z,23.95
2022-08-01T16:59:26.663Z,23.97
2022-08-01T17:01:59.394Z,24.04
2022-08-01T17:04:30.245Z,24.01
2022-08-01T17:06:58.195Z,24.10
2022-08-01T17:09:26.023Z,24.17
2022-08-01T17:11:53.611Z,24.18
2022-08-01T17:14:21.304Z,24.12
2022-08-01T17:16:50.432Z,24.18
2022-08-01T17:19:18.202Z,24.09
2022-08-01T17:21:45.858Z,24.09
2022-08-01T17:24:16.561Z,24.09
2022-08-01T17:26:44.766Z,24.06
2022-08-01T17:29:12.555Z,24.04
2022-08-01T17:31:40.186Z,23.95
2022-08-01T17:34:09.317Z,23.85
2022-08-01T17:36:37.125Z,23.82
2022-08-01T17:39:06.434Z,23.77
2022-08-01T17:41:34.147Z,23.67
2022-08-01T17:44:01.874Z,23.72
2022-08-01T17:46:30.385Z,23.64
2022-08-01T17:48:58.227Z,23.59
2022-08-01T17:51:27.371Z,23.54
2022-08-01T17:53:57.029Z,23.46
2022-08-01T17:56:25.945Z,23.37
2022-08-01T17:58:53.644Z,23.29
2022-08-01T18:01:27.094Z,23.13
2022-08-01T18:03:55.828Z,23.05
2022-08-01T18:06:28.362Z,22.98
2022-08-01T18:08:59.453Z,22.92
2022-08-01T18:11:29.413Z,22.86
2022-08-01T18:14:05.275Z,22.79
2022-08-01T18:16:33.011Z,22.69
2022-08-01T18:19:00.629Z,22.58
2022-08-01T18:21:32.079Z,22.53
2022-08-01T18:24:01.394Z,22.47
2022-08-01T18:26:29.268Z,22.44
2022-08-01T18:28:57.116Z,22.34
2022-08-01T18:33:53.714Z,22.19
2022-08-01T18:36:32.335Z,22.13
2022-08-01T18:39:05.465Z,22.07
2022-08-01T18:41:33.835Z,21.99
2022-08-01T18:44:05.610Z,21.91
2022-08-01T18:46:36.286Z,21.80
2022-08-01T18:49:04.412Z,21.76
2022-08-01T18:51:32.288Z,21.70
2022-08-01T18:54:00.138Z,21.64
2022-08-01T18:56:29.235Z,21.56
2022-08-01T18:58:57.468Z,21.49
2022-08-01T19:01:25.297Z,21.39
2022-08-01T19:03:52.956Z,21.33
2022-08-01T19:06:20.627Z,21.30
2022-08-01T19:08:48.269Z,21.25
2022-08-01T19:11:15.981Z,21.19
2022-08-01T19:13:45.131Z,21.14
2022-08-01T19:16:16.472Z,21.09
2022-08-01T19:18:44.405Z,21.01
2022-08-01T19:21:14.074Z,20.99
2022-08-01T19:23:59.529Z,20.89
2022-08-01T19:26:28.198Z,20.83
2022-08-01T19:29:04.611Z,20.80
2022-08-01T19:31:32.480Z,20.75
2022-08-01T19:34:00.860Z,20.71
2022-08-01T19:36:29.418Z,20.63
2022-08-01T19:38:57.443Z,20.57
2022-08-01T19:41:25.249Z,20.49
2022-08-01T19:43:52.918Z,20.41
2022-08-01T19:46:21.961Z,20.34
2022-08-01T19:48:54.159Z,20.29
2022-08-01T19:51:33.149Z,20.25
2022-08-01T19:54:05.355Z,20.11
2022-08-01T19:56:39.720Z,19.95
2022-08-01T19:59:09.055Z,19.83
2022-08-01T20:01:38.237Z,19.71
2022-08-01T20:04:06.988Z,19.57
2022-08-01T20:06:35.362Z,19.40
2022-08-01T20:09:04.552Z,19.27
2022-08-01T20:11:32.616Z,19.15
2022-08-01T20:14:02.467Z,19.06
2022-08-01T20:16:32.666Z,19.01
2022-08-01T20:19:01.715Z,18.89
2022-08-01T20:21:30.129Z,18.82
2022-08-01T20:24:02.746Z,18.72
2022-08-01T20:26:32.790Z,18.68
2022-08-01T20:29:03.515Z,18.69
2022-08-01T20:31:34.646Z,18.61
2022-08-01T20:34:15.725Z,18.57
2022-08-01T20:36:54.430Z,18.51
2022-08-01T20:39:23.097Z,18.42
2022-08-01T20:41:59.505Z,18.37
2022-08-01T20:44:31.476Z,18.36
2022-08-01T20:47:01.332Z,18.36
2022-08-01T20:49:31.752Z,18.37
2022-08-01T20:52:11.215Z,18.36
2022-08-01T20:54:40.164Z,18.35
2022-08-01T20:57:13.382Z,18.33
2022-08-01T20:59:56.548Z,18.31
2022-08-01T21:02:35.860Z,18.27
2022-08-01T21:05:11.034Z,18.23
2022-08-01T21:07:43.546Z,18.22
2022-08-01T21:10:13.934Z,18.22
2022-08-01T21:12:44.999Z,18.21
2022-08-01T21:15:25.333Z,18.15
2022-08-01T21:17:59.089Z,18.13
2022-08-01T21:20:31.864Z,18.01
2022-08-01T21:23:10.300Z,17.88
2022-08-01T21:25:38.092Z,17.79
2022-08-01T21:28:06.580Z,17.70
2022-08-01T21:30:37.657Z,17.61
2022-08-01T21:33:06.085Z,17.55
2022-08-01T21:35:36.060Z,17.50
2022-08-01T21:38:04.647Z,17.47
2022-08-01T21:40:34.825Z,17.43
2022-08-01T21:43:06.506Z,17.36
2022-08-01T21:45:34.294Z,17.38
2022-08-01T21:48:02.105Z,17.36
2022-08-01T21:50:33.615Z,17.29
2022-08-01T21:53:11.958Z,17.22
2022-08-01T21:55:52.147Z,17.15
2022-08-01T21:58:31.887Z,17.10
2022-08-01T22:01:07.287Z,17.04
2022-08-01T22:03:43.485Z,16.96
2022-08-01T22:06:12.830Z,16.95
2022-08-01T22:08:49.684Z,16.89
2022-08-01T22:11:22.385Z,16.85
2022-08-01T22:13:54.593Z,16.73
2022-08-01T22:16:22.648Z,16.62
2022-08-01T22:18:51.996Z,16.63
2022-08-01T22:21:20.200Z,16.68
2022-08-01T22:23:52.470Z,16.66
2022-08-01T22:26:27.142Z,16.73
2022-08-01T22:28:56.906Z,16.83
2022-08-01T22:31:24.946Z,16.90
2022-08-01T22:33:53.635Z,16.96
2022-08-01T22:36:21.897Z,16.98
2022-08-01T22:38:50.911Z,16.96
2022-08-01T22:41:19.910Z,16.92
2022-08-01T22:43:56.357Z,16.86
2022-08-01T22:46:29.399Z,16.78
2022-08-01T22:49:02.001Z,16.57
2022-08-01T22:51:43.665Z,16.50
2022-08-01T22:54:31.077Z,16.50
2022-08-01T22:57:07.464Z,16.56
2022-08-01T22:59:45.818Z,16.67
2022-08-01T23:02:17.510Z,16.72
2022-08-01T23:04:47.904Z,16.82
2022-08-01T23:07:21.014Z,16.89
2022-08-01T23:09:54.086Z,16.96
2022-08-01T23:12:24.244Z,16.99
2022-08-01T23:14:53.760Z,17.02
2022-08-01T23:17:26.441Z,17.00
2022-08-01T23:19:58.091Z,17.04
2022-08-01T23:22:29.661Z,17.02
2022-08-01T23:25:04.319Z,17.00
2022-08-01T23:27:55.945Z,17.00
2022-08-01T23:30:26.868Z,16.98
2022-08-01T23:32:55.102Z,16.98
2022-08-01T23:35:22.767Z,16.94
2022-08-01T23:37:51.330Z,16.96
2022-08-01T23:40:21.079Z,16.98
2022-08-01T23:42:53.227Z,16.98
2022-08-01T23:45:21.156Z,17.01
2022-08-01T23:47:48.788Z,17.04
2022-08-01T23:50:16.611Z,17.07
2022-08-01T23:52:48.434Z,16.98
2022-08-01T23:55:17.806Z,16.98
2022-08-01T23:57:46.892Z,16.95
